Predator — ZCTY5 — position and weather

sailwx.info

Track history (hours):
 
Tides and Currents Weather Stations Pressure Air Temp Water Temp Dewpoint Dewpoint Depression Visibility Wind Speed Wind Dir Waves Ship Positions

Predator

Last reported at 2017-Aug-20 12:16 UTC. Time now 2017-Aug-20 16:59 UTC.
Position N 43°53' E 008°02'.

Length 73 m; draft 4.3 m.

Type: Pleasure craft. MMSI: 319300000.

Date/timePositionNaut miles runAvg speedWind from/ knotsBaromVisibWave heightAir tempDewpointWater temp
2017-Aug-20 12:16N 43°53' E 008°02'0 0.0
2017-Aug-20 03:02N 43°53' E 008°02'0 0.0
2017-Aug-20 02:55N 43°53' E 008°02'0 0.0
2017-Aug-20 02:30N 43°53' E 008°02'0 0.0
2017-Aug-20 02:00N 43°53' E 008°02'0 0.0
2017-Aug-20 01:21N 43°53' E 008°02'0 0.0
2017-Aug-19 00:35N 43°53' E 008°02'0 0.0
2017-Aug-18 23:01N 43°53' E 008°02'0 0.0
2017-Aug-18 22:36N 43°53' E 008°02'0 0.0
2017-Aug-18 22:30N 43°53' E 008°02'0 0.0
2017-Aug-18 22:00N 43°53' E 008°02'0 0.0
2017-Aug-18 21:30N 43°53' E 008°02'0 0.0
2017-Aug-18 20:53N 43°53' E 008°02'0 0.0
2017-Aug-18 20:30N 43°53' E 008°02'0 0.0
2017-Aug-18 19:59N 43°53' E 008°02'0 0.0
2017-Aug-18 19:29N 43°53' E 008°02'0 0.0
2017-Aug-18 19:00N 43°53' E 008°02'0 0.0
2017-Aug-18 18:30N 43°53' E 008°02'0 0.0
2017-Aug-18 17:59N 43°53' E 008°02'0 0.0
2017-Aug-18 17:30N 43°53' E 008°02'0 0.0
2017-Aug-18 17:00N 43°53' E 008°02'0 0.0
2017-Aug-18 16:30N 43°53' E 008°02'0 0.0
2017-Aug-18 16:00N 43°53' E 008°02'0 0.0
2017-Aug-18 14:55N 43°53' E 008°02'0 0.0
2017-Aug-18 14:30N 43°53' E 008°02'0 0.0
2017-Aug-18 13:30N 43°53' E 008°02'0 0.0
2017-Aug-18 13:00N 43°53' E 008°02'0 0.0
2017-Aug-18 12:30N 43°53' E 008°02'0 0.0
2017-Aug-18 12:00N 43°53' E 008°02'0 0.0
2017-Aug-18 11:30N 43°53' E 008°02'0 0.0
2017-Aug-18 11:00N 43°53' E 008°02'0 0.0
2017-Aug-18 10:30N 43°53' E 008°02'0 0.0
2017-Aug-18 10:00N 43°53' E 008°02'0 0.0
2017-Aug-18 09:30N 43°53' E 008°02'0 0.0
2017-Aug-18 09:00N 43°53' E 008°02'0 0.2
2017-Aug-18 08:30N 43°53' E 008°02'4 8.3
2017-Aug-18 07:59N 43°49' E 007°59'4021.4
2017-Aug-18 06:05N 43°26' E 007°13'225.3
2017-Aug-18 06:00N 43°25' E 007°10'  
2017-Aug-15 19:27N 43°16' E 006°37'0 0.0
2017-Aug-15 18:45N 43°16' E 006°37'9 0.3
2017-Aug-14 09:08N 43°08' E 006°31'917.2
2017-Aug-14 08:38N 43°11' E 006°42'218.7
2017-Aug-14 08:30N 43°13' E 006°43'  
2017-Aug-11 17:56N 43°24' E 006°59'715.3
2017-Aug-11 17:27N 43°28' E 007°08'46 1.7
2017-Aug-10 14:37N 43°53' E 008°02'0 0.0
2017-Aug-10 14:30N 43°53' E 008°02'0 0.0
2017-Aug-10 13:57N 43°53' E 008°02'0 0.0
2017-Aug-10 13:20N 43°53' E 008°02'  
Track history (hours):
 
Tides and Currents Weather Stations Pressure Air Temp Water Temp Dewpoint Dewpoint Depression Visibility Wind Speed Wind Dir Waves Ship Positions

Predator

Last reported at 2017-Aug-20 12:16 UTC. Time now 2017-Aug-20 16:59 UTC.
Position N 43°53' E 008°02'.

Length 73 m; draft 4.3 m.

Type: Pleasure craft. MMSI: 319300000.

Date/timePositionNaut miles runAvg speedWind from/ knotsBaromVisibWave heightAir tempDewpointWater temp
2017-Aug-20 12:16N 43°53' E 008°02'0 0.0
2017-Aug-20 03:02N 43°53' E 008°02'0 0.0
2017-Aug-20 02:55N 43°53' E 008°02'0 0.0
2017-Aug-20 02:30N 43°53' E 008°02'0 0.0
2017-Aug-20 02:00N 43°53' E 008°02'0 0.0
2017-Aug-20 01:21N 43°53' E 008°02'0 0.0
2017-Aug-19 00:35N 43°53' E 008°02'0 0.0
2017-Aug-18 23:01N 43°53' E 008°02'0 0.0
2017-Aug-18 22:36N 43°53' E 008°02'0 0.0
2017-Aug-18 22:30N 43°53' E 008°02'0 0.0
2017-Aug-18 22:00N 43°53' E 008°02'0 0.0
2017-Aug-18 21:30N 43°53' E 008°02'0 0.0
2017-Aug-18 20:53N 43°53' E 008°02'0 0.0
2017-Aug-18 20:30N 43°53' E 008°02'0 0.0
2017-Aug-18 19:59N 43°53' E 008°02'0 0.0
2017-Aug-18 19:29N 43°53' E 008°02'0 0.0
2017-Aug-18 19:00N 43°53' E 008°02'0 0.0
2017-Aug-18 18:30N 43°53' E 008°02'0 0.0
2017-Aug-18 17:59N 43°53' E 008°02'0 0.0
2017-Aug-18 17:30N 43°53' E 008°02'0 0.0
2017-Aug-18 17:00N 43°53' E 008°02'0 0.0
2017-Aug-18 16:30N 43°53' E 008°02'0 0.0
2017-Aug-18 16:00N 43°53' E 008°02'0 0.0
2017-Aug-18 14:55N 43°53' E 008°02'0 0.0
2017-Aug-18 14:30N 43°53' E 008°02'0 0.0
2017-Aug-18 13:30N 43°53' E 008°02'0 0.0
2017-Aug-18 13:00N 43°53' E 008°02'0 0.0
2017-Aug-18 12:30N 43°53' E 008°02'0 0.0
2017-Aug-18 12:00N 43°53' E 008°02'0 0.0
2017-Aug-18 11:30N 43°53' E 008°02'0 0.0
2017-Aug-18 11:00N 43°53' E 008°02'0 0.0
2017-Aug-18 10:30N 43°53' E 008°02'0 0.0
2017-Aug-18 10:00N 43°53' E 008°02'0 0.0
2017-Aug-18 09:30N 43°53' E 008°02'0 0.0
2017-Aug-18 09:00N 43°53' E 008°02'0 0.2
2017-Aug-18 08:30N 43°53' E 008°02'4 8.3
2017-Aug-18 07:59N 43°49' E 007°59'4021.4
2017-Aug-18 06:05N 43°26' E 007°13'225.3
2017-Aug-18 06:00N 43°25' E 007°10'  
2017-Aug-15 19:27N 43°16' E 006°37'0 0.0
2017-Aug-15 18:45N 43°16' E 006°37'9 0.3
2017-Aug-14 09:08N 43°08' E 006°31'917.2
2017-Aug-14 08:38N 43°11' E 006°42'218.7
2017-Aug-14 08:30N 43°13' E 006°43'  
2017-Aug-11 17:56N 43°24' E 006°59'715.3
2017-Aug-11 17:27N 43°28' E 007°08'46 1.7
2017-Aug-10 14:37N 43°53' E 008°02'0 0.0
2017-Aug-10 14:30N 43°53' E 008°02'0 0.0
2017-Aug-10 13:57N 43°53' E 008°02'0 0.0
2017-Aug-10 13:20N 43°53' E 008°02'  

Dump ship's entire track history